Time;durP1;ratioP1;P1;durP2;ratioP2;P2;SDS_P1;SDS_P2;PMS_P1;PMS_P2;Temp;Humidity;BMP_temperature;BMP_pressure;BME280_temperature;BME280_humidity;BME280_pressure;Samples;Min_cycle;Max_cycle;Signal;HPM_P1;HPM_P2
2023/10/06 00:00:09;;;;;;;6.70;4.10;;;;;;;12.25;100.00;102328.47;5009634;28;20026;-69
2023/10/06 00:02:35;;;;;;;11.77;3.67;;;;;;;12.19;100.00;102331.69;5008862;28;20084;-69
2023/10/06 00:05:01;;;;;;;7.13;3.67;;;;;;;12.16;100.00;102335.84;5009568;28;20030;-69
2023/10/06 00:07:26;;;;;;;6.88;3.85;;;;;;;12.18;100.00;102334.19;5009343;28;20033;-69
2023/10/06 00:09:54;;;;;;;8.93;3.90;;;;;;;12.10;100.00;102329.53;5008441;28;20034;-69
2023/10/06 00:12:19;;;;;;;11.77;4.20;;;;;;;12.11;100.00;102330.38;5007182;28;20026;-69
2023/10/06 00:14:48;;;;;;;7.03;3.58;;;;;;;12.08;100.00;102331.09;5009245;28;20079;-68
2023/10/06 00:17:18;;;;;;;7.22;4.18;;;;;;;12.06;100.00;102337.03;5008633;28;20474;-68
2023/10/06 00:19:51;;;;;;;6.72;3.75;;;;;;;12.02;100.00;102341.19;5008754;28;20125;-68
2023/10/06 00:24:43;;;;;;;6.25;3.50;;;;;;;11.99;100.00;102330.66;5028372;28;20565;-69
2023/10/06 00:27:12;;;;;;;5.78;3.38;;;;;;;12.00;100.00;102338.50;5021180;28;20030;-69
2023/10/06 00:29:39;;;;;;;8.20;3.90;;;;;;;12.00;100.00;102337.59;5008562;28;20033;-68
2023/10/06 00:32:25;;;;;;;9.00;3.55;;;;;;;11.96;100.00;102326.16;5007561;28;20036;-68
2023/10/06 00:35:07;;;;;;;8.52;4.30;;;;;;;11.98;100.00;102329.75;5008583;28;20029;-68
2023/10/06 00:37:35;;;;;;;6.55;3.67;;;;;;;11.95;100.00;102329.59;5008265;28;20034;-68
2023/10/06 00:40:00;;;;;;;6.90;3.45;;;;;;;11.94;100.00;102337.31;5007202;28;20030;-69
2023/10/06 00:42:27;;;;;;;9.35;3.53;;;;;;;11.93;100.00;102328.63;5008410;28;20045;-69
2023/10/06 00:44:53;;;;;;;5.70;3.25;;;;;;;11.91;100.00;102325.06;5008737;28;20030;-68
2023/10/06 00:47:20;;;;;;;9.20;3.97;;;;;;;11.91;100.00;102327.66;5008121;28;20146;-69
2023/10/06 00:49:46;;;;;;;8.27;3.50;;;;;;;11.91;100.00;102325.06;5008449;28;20034;-69
2023/10/06 00:52:12;;;;;;;8.80;3.58;;;;;;;11.91;100.00;102322.44;5008007;28;20051;-69
2023/10/06 00:54:40;;;;;;;7.88;3.80;;;;;;;11.89;100.00;102327.56;5009516;28;20048;-68
2023/10/06 00:57:10;;;;;;;11.05;4.18;;;;;;;11.89;100.00;102334.50;5009803;28;20124;-69
2023/10/06 00:59:36;;;;;;;5.97;3.80;;;;;;;11.86;100.00;102329.13;5016506;28;20030;-69
2023/10/06 01:02:02;;;;;;;7.97;3.97;;;;;;;11.83;100.00;102324.69;5025372;28;20028;-68
2023/10/06 01:04:34;;;;;;;8.65;3.95;;;;;;;11.83;100.00;102318.59;5026935;28;20087;-68
2023/10/06 01:07:00;;;;;;;8.00;4.22;;;;;;;11.81;100.00;102315.03;5024577;28;20497;-69
2023/10/06 01:09:33;;;;;;;8.63;4.20;;;;;;;11.77;100.00;102303.59;5026827;28;20072;-67
2023/10/06 01:11:58;;;;;;;6.57;3.67;;;;;;;11.75;100.00;102305.22;5026068;28;20025;-69
2023/10/06 01:14:29;;;;;;;7.47;4.22;;;;;;;11.74;100.00;102304.34;5027042;28;20385;-69
2023/10/06 01:19:35;;;;;;;7.72;4.53;;;;;;;11.68;100.00;102296.22;5025255;28;20038;-69
2023/10/06 01:24:45;;;;;;;9.77;4.30;;;;;;;11.65;100.00;102293.47;5024685;28;20076;-69
2023/10/06 01:27:11;;;;;;;8.13;4.43;;;;;;;11.65;100.00;102298.66;5019095;28;20049;-69
2023/10/06 01:29:38;;;;;;;8.93;5.00;;;;;;;11.62;100.00;102298.53;5007307;28;20048;-68
2023/10/06 01:32:05;;;;;;;7.80;4.20;;;;;;;11.58;100.00;102300.06;4995045;28;20030;-69
2023/10/06 01:34:40;;;;;;;5.38;4.13;;;;;;;11.57;100.00;102294.78;4999569;28;20062;-68
2023/10/06 01:37:07;;;;;;;8.48;4.28;;;;;;;11.57;100.00;102294.78;5007502;28;20044;-69
2023/10/06 01:39:35;;;;;;;8.35;4.38;;;;;;;11.58;100.00;102297.47;5007293;28;20107;-69
2023/10/06 01:42:07;;;;;;;7.05;4.30;;;;;;;11.57;100.00;102287.88;5006886;28;20057;-69
2023/10/06 01:44:34;;;;;;;9.38;4.60;;;;;;;11.56;100.00;102287.81;5012322;28;20427;-69
2023/10/06 01:47:00;;;;;;;8.38;4.22;;;;;;;11.52;100.00;102285.06;5012145;28;20038;-69
2023/10/06 01:49:27;;;;;;;10.75;5.25;;;;;;;11.50;100.00;102280.59;5012222;28;20496;-68
2023/10/06 01:51:52;;;;;;;8.63;4.28;;;;;;;11.47;100.00;102272.66;5012103;28;20367;-69
2023/10/06 01:54:19;;;;;;;8.93;4.40;;;;;;;11.47;100.00;102267.47;5012498;28;20025;-69
2023/10/06 01:56:46;;;;;;;6.40;4.05;;;;;;;11.50;100.00;102270.22;5012105;28;20087;-69
2023/10/06 01:59:14;;;;;;;11.23;4.68;;;;;;;11.47;100.00;102263.19;5012463;28;20147;-69
2023/10/06 02:01:41;;;;;;;8.70;4.68;;;;;;;11.45;100.00;102264.78;5011787;28;20029;-69
2023/10/06 02:04:18;;;;;;;10.13;5.07;;;;;;;11.45;100.00;102267.41;5013075;28;20405;-68
2023/10/06 02:06:48;;;;;;;8.70;4.28;;;;;;;11.42;100.00;102264.66;5011453;28;20033;-69
2023/10/06 02:09:18;;;;;;;10.07;4.68;;;;;;;11.42;100.00;102269.84;5013545;28;20482;-68
2023/10/06 02:11:51;;;;;;;9.05;4.43;;;;;;;11.40;100.00;102266.28;5012477;28;20108;-68
2023/10/06 02:14:19;;;;;;;10.25;4.35;;;;;;;11.40;100.00;102271.47;5012386;28;20072;-69
2023/10/06 02:16:45;;;;;;;8.77;4.63;;;;;;;11.38;100.00;102273.06;5012909;28;20057;-68
2023/10/06 02:19:12;;;;;;;11.85;4.95;;;;;;;11.36;100.00;102280.78;5011720;28;20053;-69
2023/10/06 02:21:49;;;;;;;7.53;4.60;;;;;;;11.33;100.00;102283.22;5013229;28;20513;-67
2023/10/06 02:24:18;;;;;;;7.03;4.15;;;;;;;11.32;100.00;102280.53;5012271;28;20582;-68
2023/10/06 02:26:50;;;;;;;8.93;4.70;;;;;;;11.31;100.00;102274.47;5012750;28;20026;-69
2023/10/06 02:29:24;;;;;;;8.65;4.80;;;;;;;11.28;100.00;102272.59;5020853;28;20496;-69
2023/10/06 02:31:50;;;;;;;11.00;5.13;;;;;;;11.27;100.00;102275.13;5028644;28;20048;-69
2023/10/06 02:34:29;;;;;;;8.00;4.45;;;;;;;11.25;100.00;102269.84;5018830;28;20095;-68
2023/10/06 02:36:54;;;;;;;9.93;5.18;;;;;;;11.24;100.00;102270.63;5010328;28;20030;-69
2023/10/06 02:39:20;;;;;;;9.50;5.53;;;;;;;11.25;100.00;102267.25;5010974;28;20168;-69
2023/10/06 02:41:47;;;;;;;13.13;5.13;;;;;;;11.25;100.00;102261.16;5023681;28;20506;-69
2023/10/06 02:44:16;;;;;;;9.38;4.82;;;;;;;11.23;100.00;102265.38;5010587;28;20030;-68
2023/10/06 02:46:44;;;;;;;11.57;4.88;;;;;;;11.22;100.00;102277.47;5004591;28;20036;-69
2023/10/06 02:49:12;;;;;;;6.80;4.50;;;;;;;11.23;100.00;102268.88;5028842;28;20182;-68
2023/10/06 02:51:47;;;;;;;9.77;4.95;;;;;;;11.23;100.00;102273.16;5028530;28;20034;-67
2023/10/06 02:56:44;;;;;;;9.55;4.82;;;;;;;11.23;100.00;102262.78;5029378;28;20440;-69
2023/10/06 02:59:43;;;;;;;5.90;4.05;;;;;;;11.18;100.00;102259.97;5028017;28;20029;-68
2023/10/06 03:02:06;;;;;;;10.80;5.07;;;;;;;11.14;100.00;102253.72;5027830;28;20658;-68
2023/10/06 03:04:36;;;;;;;9.85;5.18;;;;;;;11.13;100.00;102246.75;5013844;28;20450;-69
2023/10/06 03:07:11;;;;;;;8.02;4.35;;;;;;;11.10;100.00;102246.56;5028699;28;20034;-69
2023/10/06 03:09:38;;;;;;;10.00;5.15;;;;;;;11.09;100.00;102241.31;5028281;28;20036;-68
2023/10/06 03:14:48;;;;;;;10.55;4.97;;;;;;;11.07;100.00;102242.94;5029354;28;20033;-69
2023/10/06 03:17:13;;;;;;;9.25;4.50;;;;;;;11.08;100.00;102242.13;5028860;28;20443;-68
2023/10/06 03:19:44;;;;;;;11.48;5.13;;;;;;;11.08;100.00;102253.38;5029769;28;20140;-69
2023/10/06 03:22:12;;;;;;;9.15;4.70;;;;;;;11.05;100.00;102254.13;5027911;28;20468;-69
2023/10/06 03:24:57;;;;;;;9.20;4.88;;;;;;;11.03;100.00;102254.84;5027702;28;20477;-67
2023/10/06 03:27:23;;;;;;;8.20;4.57;;;;;;;10.97;100.00;102251.94;4998481;28;20246;-68
2023/10/06 03:30:07;;;;;;;10.32;5.22;;;;;;;10.97;100.00;102250.25;5007780;28;20109;-69
2023/10/06 03:32:33;;;;;;;8.27;5.07;;;;;;;10.97;100.00;102250.25;5007371;28;20453;-69
2023/10/06 03:37:51;;;;;;;12.50;4.50;;;;;;;10.96;100.00;102248.44;5009633;28;20044;-67
2023/10/06 03:43:06;;;;;;;9.52;4.95;;;;;;;10.97;100.00;102249.34;4998163;28;19921;-69
2023/10/06 03:45:32;;;;;;;8.30;4.40;;;;;;;10.96;100.00;102251.03;5010084;28;20030;-69
2023/10/06 03:48:13;;;;;;;7.88;3.92;;;;;;;10.92;100.00;102243.91;5009988;28;20370;-68
2023/10/06 03:50:43;;;;;;;11.95;4.88;;;;;;;10.90;100.00;102237.75;5009867;28;20037;-69
2023/10/06 03:53:11;;;;;;;10.43;4.68;;;;;;;10.86;100.00;102244.50;5010210;28;20122;-69
2023/10/06 03:55:39;;;;;;;9.68;4.20;;;;;;;10.84;100.00;102238.31;5011062;28;20151;-67
2023/10/06 03:58:09;;;;;;;8.73;4.25;;;;;;;10.84;100.00;102229.63;5009529;28;20433;-69
2023/10/06 04:00:47;;;;;;;8.13;4.72;;;;;;;10.81;100.00;102227.78;5011259;28;20030;-69
2023/10/06 04:03:14;;;;;;;10.73;4.85;;;;;;;10.79;100.00;102225.09;5010384;28;20116;-68
2023/10/06 04:05:44;;;;;;;9.73;4.10;;;;;;;10.77;100.00;102212.88;5010793;28;20026;-69
2023/10/06 04:08:17;;;;;;;10.10;4.63;;;;;;;10.77;100.00;102221.56;5010199;28;20044;-69
2023/10/06 04:10:44;;;;;;;7.82;3.85;;;;;;;10.78;100.00;102223.31;5011591;28;20625;-68
2023/10/06 04:13:10;;;;;;;7.65;4.05;;;;;;;10.78;100.00;102214.66;5008368;28;20030;-69
2023/10/06 04:15:43;;;;;;;8.15;4.45;;;;;;;10.77;100.00;102216.38;5016947;28;20026;-69
2023/10/06 04:18:10;;;;;;;6.03;4.07;;;;;;;10.76;100.00;102214.56;5015849;28;20032;-69
2023/10/06 04:20:40;;;;;;;7.45;4.30;;;;;;;10.75;100.00;102217.09;5013406;28;20366;-69
2023/10/06 04:23:07;;;;;;;5.72;3.92;;;;;;;10.77;100.00;102218.06;5010809;28;20088;-69
2023/10/06 04:25:37;;;;;;;9.68;3.97;;;;;;;10.76;100.00;102219.75;5010822;28;20042;-68
2023/10/06 04:28:11;;;;;;;10.43;4.30;;;;;;;10.76;100.00;102240.50;5023298;28;20425;-69
2023/10/06 04:30:42;;;;;;;7.97;4.75;;;;;;;10.74;100.00;102239.50;5007289;28;20367;-68
2023/10/06 04:33:09;;;;;;;5.28;3.50;;;;;;;10.72;100.00;102227.28;5006542;28;20029;-69
2023/10/06 04:35:39;;;;;;;7.82;4.20;;;;;;;10.72;100.00;102228.16;5021694;28;20017;-69
2023/10/06 04:38:05;;;;;;;7.93;4.15;;;;;;;10.71;100.00;102223.81;5022606;28;20353;-69
2023/10/06 04:40:32;;;;;;;6.32;3.67;;;;;;;10.72;100.00;102228.16;5024761;28;20144;-69
2023/10/06 04:42:58;;;;;;;7.32;4.50;;;;;;;10.68;100.00;102211.59;5022352;28;20032;-68
2023/10/06 04:45:27;;;;;;;7.13;3.40;;;;;;;10.67;100.00;102224.44;5024719;28;20022;-69
2023/10/06 04:47:55;;;;;;;7.68;4.43;;;;;;;10.65;100.00;102210.53;5022216;28;20029;-67
2023/10/06 04:50:22;;;;;;;6.22;4.05;;;;;;;10.64;100.00;102208.72;5011819;28;20442;-69
2023/10/06 04:52:47;;;;;;;8.27;4.13;;;;;;;10.63;100.00;102209.56;5015730;28;20601;-69
2023/10/06 04:55:13;;;;;;;6.82;3.83;;;;;;;10.62;100.00;102215.53;5017209;28;20104;-68
2023/10/06 04:57:41;;;;;;;9.77;3.78;;;;;;;10.62;100.00;102212.94;5018126;28;20501;-69
2023/10/06 05:00:13;;;;;;;9.23;4.30;;;;;;;10.60;100.00;102211.94;5025380;28;20394;-69
2023/10/06 05:02:42;;;;;;;10.32;4.32;;;;;;;10.56;100.00;102209.19;5023665;28;20021;-68
2023/10/06 05:05:10;;;;;;;7.57;3.85;;;;;;;10.57;100.00;102205.81;5025334;28;20033;-68
2023/10/06 05:07:36;;;;;;;5.60;4.25;;;;;;;10.56;100.00;102198.84;5023272;28;20032;-69
2023/10/06 05:10:02;;;;;;;8.88;4.30;;;;;;;10.58;100.00;102209.28;5024293;28;20033;-67
2023/10/06 05:12:27;;;;;;;10.82;4.45;;;;;;;10.54;100.00;102208.22;5022784;28;20374;-69
2023/10/06 05:14:52;;;;;;;10.38;4.05;;;;;;;10.57;100.00;102208.41;5024071;28;20508;-68
2023/10/06 05:17:18;;;;;;;7.93;3.80;;;;;;;10.56;100.00;102204.03;5022301;28;20021;-69
2023/10/06 05:19:45;;;;;;;7.85;3.33;;;;;;;10.60;100.00;102196.41;5023445;28;20033;-69
2023/10/06 05:22:11;;;;;;;6.38;4.05;;;;;;;10.61;100.00;102203.38;5022165;28;20101;-69
2023/10/06 05:24:36;;;;;;;8.15;3.72;;;;;;;10.60;100.00;102205.06;5006152;28;20396;-69
2023/10/06 05:27:02;;;;;;;6.85;3.72;;;;;;;10.61;100.00;102193.00;5006209;28;20022;-67
2023/10/06 05:29:28;;;;;;;5.55;4.10;;;;;;;10.63;100.00;102196.59;5007470;28;20486;-69
2023/10/06 05:31:53;;;;;;;6.60;3.33;;;;;;;10.63;100.00;102194.00;5005670;28;20518;-68
2023/10/06 05:34:19;;;;;;;9.52;3.30;;;;;;;10.67;100.00;102203.69;5005446;28;20025;-68
2023/10/06 05:36:44;;;;;;;6.88;3.58;;;;;;;10.68;100.00;102197.72;5006060;28;20090;-69
2023/10/06 05:39:11;;;;;;;7.80;4.00;;;;;;;10.69;100.00;102197.81;5007104;28;20018;-69
2023/10/06 05:41:39;;;;;;;10.65;4.22;;;;;;;10.71;100.00;102200.47;5007214;28;20096;-69
2023/10/06 05:44:08;;;;;;;7.80;3.90;;;;;;;10.72;100.00;102198.78;5008231;28;20025;-69
2023/10/06 05:46:34;;;;;;;9.98;4.72;;;;;;;10.72;100.00;102206.56;5008948;28;20034;-69
2023/10/06 05:49:03;;;;;;;7.78;4.60;;;;;;;10.73;100.00;102203.13;5008078;28;20512;-68
2023/10/06 05:51:29;;;;;;;7.15;3.17;;;;;;;10.74;100.00;102200.63;5007763;28;20416;-69
2023/10/06 05:53:56;;;;;;;8.90;4.40;;;;;;;10.74;100.00;102204.94;5007852;28;20044;-68
2023/10/06 05:56:23;;;;;;;7.15;3.67;;;;;;;10.74;100.00;102205.81;5006291;28;20026;-67
2023/10/06 05:58:48;;;;;;;7.88;3.78;;;;;;;10.72;100.00;102210.00;5008424;28;20061;-69
2023/10/06 06:01:18;;;;;;;6.20;3.40;;;;;;;10.73;100.00;102205.72;5008954;28;20319;-69
2023/10/06 06:03:49;;;;;;;7.72;4.03;;;;;;;10.75;100.00;102202.44;5008520;28;20104;-69
2023/10/06 06:06:15;;;;;;;;;;;;;;;10.75;100.00;102197.25;5008909;28;20036;-69
2023/10/06 06:08:47;;;;;;;9.00;4.22;;;;;;;10.75;100.00;102199.84;5008757;28;20415;-69
2023/10/06 06:11:12;;;;;;;;;;;;;;;10.76;100.00;102199.00;5008442;28;20373;-72
2023/10/06 06:13:38;;;;;;;6.93;3.83;;;;;;;10.78;100.00;102207.75;5008094;28;19919;-72
2023/10/06 06:16:05;;;;;;;10.60;4.60;;;;;;;10.81;100.00;102212.25;5008142;28;20482;-72
2023/10/06 06:18:31;;;;;;;10.23;4.10;;;;;;;10.84;100.00;102217.56;5008165;28;20137;-70
2023/10/06 06:20:58;;;;;;;6.45;3.63;;;;;;;10.86;100.00;102212.47;5008428;28;20385;-71
2023/10/06 06:23:24;;;;;;;5.78;3.70;;;;;;;10.88;100.00;102213.44;5008859;28;20026;-73
2023/10/06 06:25:49;;;;;;;6.45;3.92;;;;;;;10.91;100.00;102208.41;5007916;28;20062;-71
2023/10/06 06:28:16;;;;;;;9.45;3.95;;;;;;;10.92;100.00;102211.09;5022253;28;20061;-70
2023/10/06 06:30:42;;;;;;;5.95;3.40;;;;;;;10.98;100.00;102214.81;5029725;28;20033;-71
2023/10/06 06:33:08;;;;;;;8.40;3.95;;;;;;;11.01;100.00;102212.41;5029418;28;20021;-72
2023/10/06 06:35:35;;;;;;;6.47;3.58;;;;;;;11.07;100.00;102224.78;5030430;28;20025;-70
2023/10/06 06:38:04;;;;;;;7.80;3.15;;;;;;;11.07;100.00;102219.56;5029085;28;20049;-72
2023/10/06 06:40:31;;;;;;;10.50;4.65;;;;;;;11.10;100.00;102217.16;5030539;28;20144;-70
2023/10/06 06:42:56;;;;;;;10.70;3.80;;;;;;;11.12;100.00;102215.53;5029413;28;20088;-72
2023/10/06 06:45:25;;;;;;;7.28;4.05;;;;;;;11.14;100.00;102217.41;5030026;28;20468;-71
2023/10/06 06:47:52;;;;;;;11.23;3.83;;;;;;;11.17;100.00;102216.69;5028655;28;20348;-73
2023/10/06 06:50:18;;;;;;;7.07;3.20;;;;;;;11.18;100.00;102218.44;5029490;28;20074;-72
2023/10/06 06:52:48;;;;;;;8.55;4.40;;;;;;;11.19;100.00;102219.34;5029422;28;20386;-72
2023/10/06 06:55:14;;;;;;;10.52;4.15;;;;;;;11.18;100.00;102223.63;5030000;28;20049;-72
2023/10/06 06:57:43;;;;;;;9.18;3.75;;;;;;;11.20;100.00;102222.00;5029239;28;20041;-72
2023/10/06 07:00:15;;;;;;;10.93;4.10;;;;;;;11.23;100.00;102218.66;5029341;28;20033;-72
2023/10/06 07:02:50;;;;;;;9.70;3.90;;;;;;;11.23;100.00;102219.56;5029980;28;20057;-73
2023/10/06 07:05:18;;;;;;;7.78;4.05;;;;;;;11.26;100.00;102217.13;5029210;28;20463;-68
2023/10/06 07:07:45;;;;;;;7.03;4.22;;;;;;;11.28;100.00;102209.41;5029929;28;20553;-72
2023/10/06 07:10:13;;;;;;;9.70;3.90;;;;;;;11.29;100.00;102222.50;5029015;28;20025;-70
2023/10/06 07:12:39;;;;;;;7.55;4.18;;;;;;;11.29;100.00;102214.72;5029453;28;20059;-71
2023/10/06 07:15:09;;;;;;;9.65;4.07;;;;;;;11.33;100.00;102214.84;5028173;28;20106;-71
2023/10/06 07:17:34;;;;;;;8.07;3.95;;;;;;;11.36;100.00;102222.78;5010411;28;20030;-71
2023/10/06 07:20:00;;;;;;;8.93;3.90;;;;;;;11.37;100.00;102216.81;5009710;28;20025;-71
2023/10/06 07:22:31;;;;;;;10.32;3.85;;;;;;;11.39;100.00;102216.06;5010234;28;20041;-72
2023/10/06 07:24:57;;;;;;;7.75;3.63;;;;;;;11.44;100.00;102216.28;5009690;28;20026;-72
2023/10/06 07:27:23;;;;;;;8.05;4.05;;;;;;;11.51;100.00;102227.88;5018319;28;20549;-72
2023/10/06 07:29:51;;;;;;;9.45;3.70;;;;;;;11.56;100.00;102230.69;5028809;28;20029;-72
2023/10/06 07:32:17;;;;;;;5.95;3.45;;;;;;;11.61;100.00;102226.63;5028787;28;20442;-71
2023/10/06 07:34:42;;;;;;;8.95;4.13;;;;;;;11.65;100.00;102225.97;5014525;28;20080;-73
2023/10/06 07:37:07;;;;;;;10.70;3.75;;;;;;;11.71;100.00;102226.25;5028514;28;20025;-71
2023/10/06 07:39:33;;;;;;;7.43;3.50;;;;;;;11.77;100.00;102230.88;5026808;28;20347;-72
2023/10/06 07:41:58;;;;;;;6.72;3.70;;;;;;;11.84;100.00;102235.56;5028009;28;20060;-71
2023/10/06 07:44:25;;;;;;;12.05;4.43;;;;;;;11.98;100.00;102228.44;5027251;28;20026;-71
2023/10/06 07:46:52;;;;;;;8.80;4.07;;;;;;;12.14;100.00;102226.63;5028417;28;20029;-72
2023/10/06 07:49:17;;;;;;;6.90;3.58;;;;;;;12.26;100.00;102236.69;5027789;28;20029;-72
2023/10/06 07:51:45;;;;;;;7.68;3.47;;;;;;;12.32;100.00;102241.31;5028339;28;20508;-72
2023/10/06 07:54:10;;;;;;;8.80;3.13;;;;;;;12.37;100.00;102247.59;5026837;28;20043;-72
2023/10/06 07:56:35;;;;;;;6.40;3.03;;;;;;;12.46;100.00;102252.34;5028036;28;20385;-73
2023/10/06 07:59:01;;;;;;;7.35;3.85;;;;;;;12.56;100.00;102261.44;5027125;28;20036;-72
2023/10/06 08:01:27;;;;;;;10.93;4.15;;;;;;;12.73;100.00;102268.34;5028193;28;20033;-71
2023/10/06 08:03:53;;;;;;;6.78;2.97;;;;;;;13.11;100.00;102270.00;5026892;28;20041;-71
2023/10/06 08:06:20;;;;;;;6.30;3.08;;;;;;;13.69;100.00;102268.16;5027143;28;20036;-68
2023/10/06 08:08:48;;;;;;;9.82;3.63;;;;;;;14.12;100.00;102264.66;5026798;28;20040;-72
2023/10/06 08:11:13;;;;;;;7.88;3.40;;;;;;;14.60;100.00;102261.28;5028046;28;20018;-72
2023/10/06 08:13:38;;;;;;;7.03;3.67;;;;;;;14.92;100.00;102254.63;5026614;28;20141;-69
2023/10/06 08:16:06;;;;;;;8.30;3.40;;;;;;;14.97;100.00;102260.88;5026881;28;20531;-71
2023/10/06 08:18:32;;;;;;;7.57;4.05;;;;;;;15.23;100.00;102255.72;5026434;28;20445;-72
2023/10/06 08:21:01;;;;;;;10.02;4.47;;;;;;;15.53;100.00;102246.28;5027812;28;20108;-72
2023/10/06 08:23:28;;;;;;;6.82;3.60;;;;;;;15.94;100.00;102249.38;5025924;28;20441;-71
2023/10/06 08:25:56;;;;;;;6.47;3.08;;;;;;;16.04;100.00;102245.38;5027504;28;20021;-71
2023/10/06 08:28:26;;;;;;;5.82;3.03;;;;;;;16.29;100.00;102256.59;5012422;28;20033;-71
2023/10/06 08:30:54;;;;;;;6.05;3.10;;;;;;;16.46;100.00;102264.03;5009374;28;20045;-71
2023/10/06 08:33:19;;;;;;;12.05;2.97;;;;;;;16.49;100.00;102261.53;5008490;28;20029;-70
2023/10/06 08:35:45;;;;;;;7.65;2.75;;;;;;;16.43;100.00;102253.50;5009043;28;20025;-72
2023/10/06 08:38:10;;;;;;;9.35;3.47;;;;;;;16.54;100.00;102259.94;5009183;28;20022;-71
2023/10/06 08:40:41;;;;;;;11.73;3.45;;;;;;;16.47;100.00;102264.94;5008699;28;20394;-71
2023/10/06 08:43:07;;;;;;;8.35;3.47;;;;;;;16.36;100.00;102256.75;5007503;28;20061;-71
2023/10/06 08:45:40;;;;;;;7.78;4.22;;;;;;;16.18;100.00;102252.75;5019631;28;20433;-72
2023/10/06 08:48:10;;;;;;;14.95;3.60;;;;;;;16.05;100.00;102246.22;5021496;28;20046;-71
2023/10/06 08:50:37;;;;;;;5.57;3.25;;;;;;;16.08;100.00;102255.06;5008573;28;20026;-71
2023/10/06 08:53:09;;;;;;;7.95;3.40;;;;;;;16.16;100.00;102255.31;5007269;28;20112;-71
2023/10/06 08:55:38;;;;;;;9.30;3.45;;;;;;;16.36;100.00;102255.03;5008031;28;20030;-72
2023/10/06 08:58:04;;;;;;;8.38;3.30;;;;;;;16.31;100.00;102259.25;5019892;28;20026;-71
2023/10/06 09:00:32;;;;;;;5.68;3.30;;;;;;;16.35;100.00;102266.34;5008239;28;20033;-72
2023/10/06 09:03:07;;;;;;;9.02;3.72;;;;;;;16.25;100.00;102262.56;5027715;28;20152;-72
2023/10/06 09:05:34;;;;;;;8.10;3.95;;;;;;;16.22;100.00;102269.41;5025566;28;20044;-72
2023/10/06 09:08:04;;;;;;;7.72;3.03;;;;;;;16.00;100.00;102259.16;5007970;28;20101;-72
2023/10/06 09:10:30;;;;;;;7.35;3.35;;;;;;;15.95;100.00;102265.94;5008601;28;20030;-72
2023/10/06 09:13:00;;;;;;;10.57;3.78;;;;;;;15.90;100.00;102268.41;5008353;28;20026;-72
2023/10/06 09:15:25;;;;;;;6.43;3.05;;;;;;;15.85;100.00;102270.88;5007963;28;20525;-72
2023/10/06 09:17:53;;;;;;;7.10;3.70;;;;;;;15.98;100.00;102276.50;5007876;28;20082;-71
2023/10/06 09:20:27;;;;;;;9.10;3.75;;;;;;;15.99;100.00;102267.84;5011441;28;20047;-72
2023/10/06 09:22:52;;;;;;;6.30;3.13;;;;;;;16.10;100.00;102269.94;5027508;28;20091;-71
2023/10/06 09:25:19;;;;;;;9.65;3.30;;;;;;;16.11;100.00;102258.63;5008817;28;20025;-70
2023/10/06 09:27:44;;;;;;;5.10;2.85;;;;;;;16.14;100.00;102254.38;5007768;28;20499;-70
2023/10/06 09:30:16;;;;;;;9.68;3.70;;;;;;;16.11;100.00;102246.44;5024945;28;20076;-72
2023/10/06 09:32:42;;;;;;;8.82;3.75;;;;;;;16.11;100.00;102241.22;5026479;28;20156;-70
2023/10/06 09:35:23;;;;;;;5.35;3.35;;;;;;;16.18;100.00;102250.13;5021640;28;20511;-71
2023/10/06 09:37:51;;;;;;;6.85;3.63;;;;;;;16.27;100.00;102245.19;5007902;28;20084;-72
2023/10/06 09:40:22;;;;;;;10.30;3.75;;;;;;;16.24;100.00;102242.50;5026985;28;20083;-71
2023/10/06 09:42:49;;;;;;;7.93;3.67;;;;;;;16.13;100.00;102234.31;5025468;28;20041;-71
2023/10/06 09:45:21;;;;;;;5.85;3.40;;;;;;;16.23;100.00;102234.56;5026942;28;20041;-73
2023/10/06 09:47:51;;;;;;;5.97;3.63;;;;;;;16.24;100.00;102239.88;5026044;28;20091;-71
2023/10/06 09:50:20;;;;;;;13.55;4.22;;;;;;;16.31;100.00;102248.78;5026239;28;20061;-72
2023/10/06 09:52:50;;;;;;;8.65;3.53;;;;;;;16.31;100.00;102249.69;5025149;28;20057;-72
2023/10/06 09:55:20;;;;;;;6.93;3.70;;;;;;;16.32;100.00;102240.97;5027236;28;20084;-72
2023/10/06 09:57:47;;;;;;;7.25;3.30;;;;;;;16.32;100.00;102230.53;5026237;28;20405;-73
2023/10/06 10:00:19;;;;;;;7.93;3.35;;;;;;;16.31;100.00;102233.09;5023364;28;20105;-73
2023/10/06 10:02:47;;;;;;;5.97;2.97;;;;;;;16.29;100.00;102225.22;5025376;28;20028;-72
2023/10/06 10:05:14;;;;;;;9.35;4.03;;;;;;;16.29;100.00;102235.66;5029540;28;20116;-72
2023/10/06 10:07:43;;;;;;;8.50;3.10;;;;;;;16.29;100.00;102235.66;4998240;28;20540;-73
2023/10/06 10:10:12;;;;;;;5.18;3.17;;;;;;;16.29;100.00;102233.06;5010383;28;20018;-71
2023/10/06 10:12:59;;;;;;;8.32;3.42;;;;;;;16.23;100.00;102230.22;5030783;28;20116;-72
2023/10/06 10:15:37;;;;;;;8.02;3.30;;;;;;;16.30;100.00;102226.97;5026790;28;20101;-72
2023/10/06 10:18:25;;;;;;;5.25;3.00;;;;;;;16.29;100.00;102221.69;5022989;28;20033;-71
2023/10/06 10:20:52;;;;;;;7.03;2.90;;;;;;;16.37;100.00;102225.41;5007476;28;20385;-71
2023/10/06 10:23:18;;;;;;;4.63;2.33;;;;;;;16.43;100.00;102229.94;5029779;28;20021;-72
2023/10/06 10:25:44;;;;;;;6.47;2.70;;;;;;;16.49;100.00;102227.53;5030355;28;20025;-71
2023/10/06 10:28:19;;;;;;;6.85;3.15;;;;;;;16.38;100.00;102223.69;5016453;28;20536;-70
2023/10/06 10:30:53;;;;;;;5.78;3.00;;;;;;;16.40;100.00;102222.03;5030552;28;20052;-71
2023/10/06 10:33:33;;;;;;;10.45;4.22;;;;;;;16.46;100.00;102221.31;5030272;28;20481;-72
2023/10/06 10:36:19;;;;;;;8.10;3.08;;;;;;;16.45;100.00;102230.88;5029252;28;20029;-72
2023/10/06 10:38:55;;;;;;;8.32;3.33;;;;;;;16.44;100.00;102224.75;5007752;28;20377;-71
2023/10/06 10:41:23;;;;;;;6.72;3.35;;;;;;;16.53;100.00;102221.53;5028250;28;20417;-72
2023/10/06 10:43:48;;;;;;;8.65;3.80;;;;;;;16.59;100.00;102212.97;5029591;28;20021;-72
2023/10/06 10:46:30;;;;;;;7.80;3.30;;;;;;;16.63;100.00;102214.84;5027858;28;20431;-71
2023/10/06 10:48:58;;;;;;;9.85;3.28;;;;;;;16.62;100.00;102217.41;5029562;28;20038;-71
2023/10/06 10:51:24;;;;;;;6.53;3.45;;;;;;;16.63;100.00;102203.47;5029744;28;20492;-72
2023/10/06 10:53:51;;;;;;;7.93;3.05;;;;;;;16.66;100.00;102203.56;5017775;28;20056;-72
2023/10/06 10:56:25;;;;;;;7.53;3.33;;;;;;;16.70;100.00;102210.66;5008211;28;20018;-71
2023/10/06 10:58:50;;;;;;;8.35;3.20;;;;;;;16.77;100.00;102209.09;5011131;28;20431;-71
2023/10/06 11:01:23;;;;;;;6.10;3.38;;;;;;;16.89;100.00;102211.19;5010679;28;20603;-72
2023/10/06 11:04:14;;;;;;;15.00;3.30;;;;;;;16.93;100.00;102208.69;5010815;28;20034;-71
2023/10/06 11:06:41;;;;;;;8.82;3.15;;;;;;;17.04;100.00;102208.97;5010478;28;20474;-72
2023/10/06 11:09:29;;;;;;;9.15;3.38;;;;;;;17.17;100.00;102206.72;5010121;28;20041;-71
2023/10/06 11:12:05;;;;;;;6.65;3.15;;;;;;;17.26;100.00;102212.19;5011307;28;20057;-71
2023/10/06 11:14:31;;;;;;;9.07;3.13;;;;;;;17.30;100.00;102213.16;5010006;28;20061;-72
2023/10/06 11:17:02;;;;;;;8.40;3.25;;;;;;;17.28;100.00;102210.50;5010879;28;20304;-72
2023/10/06 11:19:29;;;;;;;7.30;3.00;;;;;;;17.30;100.00;102217.50;5010634;28;20536;-72
2023/10/06 11:21:55;;;;;;;9.65;3.58;;;;;;;17.35;100.00;102208.94;5010216;28;20068;-70
2023/10/06 11:24:28;;;;;;;5.95;3.03;;;;;;;17.42;100.00;102209.97;5009395;28;20038;-71
2023/10/06 11:26:54;;;;;;;6.70;3.50;;;;;;;17.25;100.00;102199.94;5013684;28;20097;-71
2023/10/06 11:29:31;;;;;;;8.30;3.40;;;;;;;17.26;100.00;102212.19;5020370;28;20553;-71
2023/10/06 11:32:01;;;;;;;4.60;2.63;;;;;;;17.27;100.00;102211.34;5010035;28;20466;-71
2023/10/06 11:34:27;;;;;;;7.43;3.40;;;;;;;17.27;100.00;102208.72;5009997;28;20030;-71
2023/10/06 11:36:56;;;;;;;7.07;3.35;;;;;;;17.34;100.00;102198.41;5009895;28;20386;-72
2023/10/06 11:39:23;;;;;;;8.73;3.10;;;;;;;17.42;100.00;102196.88;5009042;28;20478;-71
2023/10/06 11:41:51;;;;;;;8.80;3.25;;;;;;;17.57;100.00;102198.09;5009812;28;20099;-72